sensor_id;sensor_type;location;lat;lon;timestamp;pressure;altitude;pressure_sealevel;temperature;humidity
69306;BME280;56427;51.580;4.656;2023-01-26T00:02:02;102510.22;;;-1.17;100.00
69306;BME280;56427;51.580;4.656;2023-01-26T00:04:28;102506.84;;;-1.19;100.00
69306;BME280;56427;51.580;4.656;2023-01-26T00:06:53;102496.53;;;-1.04;100.00
69306;BME280;56427;51.580;4.656;2023-01-26T00:09:18;102492.19;;;-0.94;100.00
69306;BME280;56427;51.580;4.656;2023-01-26T00:11:44;102487.28;;;-1.14;100.00
69306;BME280;56427;51.580;4.656;2023-01-26T00:14:09;102485.53;;;-1.09;100.00
69306;BME280;56427;51.580;4.656;2023-01-26T00:16:35;102484.75;;;-1.17;100.00
69306;BME280;56427;51.580;4.656;2023-01-26T00:19:00;102480.41;;;-1.04;100.00
69306;BME280;56427;51.580;4.656;2023-01-26T00:21:26;102472.78;;;-1.11;100.00
69306;BME280;56427;51.580;4.656;2023-01-26T00:23:52;102466.81;;;-1.05;100.00
69306;BME280;56427;51.580;4.656;2023-01-26T00:26:22;102467.66;;;-1.06;100.00
69306;BME280;56427;51.580;4.656;2023-01-26T00:28:49;102467.78;;;-1.18;100.00
69306;BME280;56427;51.580;4.656;2023-01-26T00:31:17;102466.03;;;-1.13;100.00
69306;BME280;56427;51.580;4.656;2023-01-26T00:33:43;102466.84;;;-1.09;100.00
69306;BME280;56427;51.580;4.656;2023-01-26T00:36:09;102463.56;;;-1.25;100.00
69306;BME280;56427;51.580;4.656;2023-01-26T00:38:34;102466.91;;;-1.20;100.00
69306;BME280;56427;51.580;4.656;2023-01-26T00:41:00;102460.03;;;-1.07;100.00
69306;BME280;56427;51.580;4.656;2023-01-26T00:43:25;102457.59;;;-1.18;100.00
69306;BME280;56427;51.580;4.656;2023-01-26T00:45:50;102454.97;;;-1.14;100.00
69306;BME280;56427;51.580;4.656;2023-01-26T00:48:16;102459.25;;;-1.17;100.00
69306;BME280;56427;51.580;4.656;2023-01-26T00:50:41;102466.03;;;-1.10;100.00
69306;BME280;56427;51.580;4.656;2023-01-26T00:53:07;102465.03;;;-0.94;100.00
69306;BME280;56427;51.580;4.656;2023-01-26T00:55:32;102464.28;;;-1.05;100.00
69306;BME280;56427;51.580;4.656;2023-01-26T00:58:02;102470.38;;;-1.24;100.00
69306;BME280;56427;51.580;4.656;2023-01-26T01:00:29;102474.47;;;-1.05;100.00
69306;BME280;56427;51.580;4.656;2023-01-26T01:02:54;102466.03;;;-1.10;100.00
69306;BME280;56427;51.580;4.656;2023-01-26T01:05:24;102470.16;;;-1.00;100.00
69306;BME280;56427;51.580;4.656;2023-01-26T01:07:50;102465.13;;;-1.07;100.00
69306;BME280;56427;51.580;4.656;2023-01-26T01:10:16;102461.72;;;-1.05;100.00
69306;BME280;56427;51.580;4.656;2023-01-26T01:12:41;102460.81;;;-0.99;100.00
69306;BME280;56427;51.580;4.656;2023-01-26T01:15:07;102461.75;;;-1.08;100.00
69306;BME280;56427;51.580;4.656;2023-01-26T01:17:33;102468.56;;;-1.08;100.00
69306;BME280;56427;51.580;4.656;2023-01-26T01:20:02;102463.38;;;-1.01;100.00
69306;BME280;56427;51.580;4.656;2023-01-26T01:22:27;102465.84;;;-0.88;100.00
69306;BME280;56427;51.580;4.656;2023-01-26T01:24:52;102461.59;;;-0.91;100.00
69306;BME280;56427;51.580;4.656;2023-01-26T01:27:18;102462.56;;;-1.03;100.00
69306;BME280;56427;51.580;4.656;2023-01-26T01:29:43;102458.91;;;-0.74;100.00
69306;BME280;56427;51.580;4.656;2023-01-26T01:32:08;102461.53;;;-0.83;100.00
69306;BME280;56427;51.580;4.656;2023-01-26T01:34:34;102469.31;;;-0.99;100.00
69306;BME280;56427;51.580;4.656;2023-01-26T01:36:59;102470.06;;;-0.87;100.00
69306;BME280;56427;51.580;4.656;2023-01-26T01:39:24;102461.47;;;-0.77;100.00
69306;BME280;56427;51.580;4.656;2023-01-26T01:41:50;102460.56;;;-0.73;100.00
69306;BME280;56427;51.580;4.656;2023-01-26T01:44:23;102462.34;;;-0.80;100.00
69306;BME280;56427;51.580;4.656;2023-01-26T01:47:02;102464.84;;;-0.73;100.00
69306;BME280;56427;51.580;4.656;2023-01-26T01:49:32;102467.47;;;-0.81;100.00
69306;BME280;56427;51.580;4.656;2023-01-26T01:52:15;102462.25;;;-0.70;100.00
69306;BME280;56427;51.580;4.656;2023-01-26T01:55:02;102460.56;;;-0.71;100.00
69306;BME280;56427;51.580;4.656;2023-01-26T01:57:39;102454.69;;;-0.78;100.00
69306;BME280;56427;51.580;4.656;2023-01-26T02:00:17;102453.09;;;-0.91;100.00
69306;BME280;56427;51.580;4.656;2023-01-26T02:02:47;102447.19;;;-0.92;100.00
69306;BME280;56427;51.580;4.656;2023-01-26T02:05:38;102444.63;;;-0.90;100.00
69306;BME280;56427;51.580;4.656;2023-01-26T02:08:05;102448.03;;;-0.95;100.00
69306;BME280;56427;51.580;4.656;2023-01-26T02:10:31;102444.63;;;-0.90;100.00
69306;BME280;56427;51.580;4.656;2023-01-26T02:12:57;102440.31;;;-0.84;100.00
69306;BME280;56427;51.580;4.656;2023-01-26T02:15:26;102442.03;;;-0.89;100.00
69306;BME280;56427;51.580;4.656;2023-01-26T02:17:52;102439.59;;;-0.98;100.00
69306;BME280;56427;51.580;4.656;2023-01-26T02:20:31;102439.22;;;-0.63;100.00
69306;BME280;56427;51.580;4.656;2023-01-26T02:28:25;102429.22;;;-0.83;100.00
69306;BME280;56427;51.580;4.656;2023-01-26T02:30:52;102427.47;;;-0.78;100.00
69306;BME280;56427;51.580;4.656;2023-01-26T02:33:20;102429.03;;;-0.64;100.00
69306;BME280;56427;51.580;4.656;2023-01-26T02:35:46;102433.34;;;-0.71;100.00
69306;BME280;56427;51.580;4.656;2023-01-26T02:38:11;102439.41;;;-0.80;100.00
69306;BME280;56427;51.580;4.656;2023-01-26T02:43:18;102432.56;;;-0.78;100.00
69306;BME280;56427;51.580;4.656;2023-01-26T02:45:44;102430.81;;;-0.71;100.00
69306;BME280;56427;51.580;4.656;2023-01-26T02:48:09;102430.66;;;-0.54;100.00
69306;BME280;56427;51.580;4.656;2023-01-26T02:50:35;102437.63;;;-0.71;100.00
69306;BME280;56427;51.580;4.656;2023-01-26T02:53:01;102430.16;;;-0.88;100.00
69306;BME280;56427;51.580;4.656;2023-01-26T02:55:27;102431.81;;;-0.86;100.00
69306;BME280;56427;51.580;4.656;2023-01-26T02:58:01;102441.00;;;-0.72;100.00
69306;BME280;56427;51.580;4.656;2023-01-26T03:00:31;102427.38;;;-0.68;100.00
69306;BME280;56427;51.580;4.656;2023-01-26T03:02:58;102424.66;;;-0.53;100.00
69306;BME280;56427;51.580;4.656;2023-01-26T03:05:26;102423.22;;;-0.74;100.00
69306;BME280;56427;51.580;4.656;2023-01-26T03:07:52;102422.38;;;-0.78;100.00
69306;BME280;56427;51.580;4.656;2023-01-26T03:10:18;102432.53;;;-0.73;100.00
69306;BME280;56427;51.580;4.656;2023-01-26T03:12:44;102424.03;;;-0.72;100.00
69306;BME280;56427;51.580;4.656;2023-01-26T03:15:09;102427.38;;;-0.67;100.00
69306;BME280;56427;51.580;4.656;2023-01-26T03:18:05;102424.03;;;-0.70;100.00
69306;BME280;56427;51.580;4.656;2023-01-26T03:21:25;102436.72;;;-0.66;100.00
69306;BME280;56427;51.580;4.656;2023-01-26T03:24:10;102423.13;;;-0.66;100.00
69306;BME280;56427;51.580;4.656;2023-01-26T03:26:55;102425.53;;;-0.54;100.00
69306;BME280;56427;51.580;4.656;2023-01-26T03:29:38;102421.09;;;-0.40;100.00
69306;BME280;56427;51.580;4.656;2023-01-26T03:32:04;102424.56;;;-0.44;100.00
69306;BME280;56427;51.580;4.656;2023-01-26T03:34:29;102421.31;;;-0.57;100.00
69306;BME280;56427;51.580;4.656;2023-01-26T03:36:54;102422.25;;;-0.65;100.00
69306;BME280;56427;51.580;4.656;2023-01-26T03:39:20;102425.72;;;-0.72;100.00
69306;BME280;56427;51.580;4.656;2023-01-26T03:42:05;102421.34;;;-0.60;100.00
69306;BME280;56427;51.580;4.656;2023-01-26T03:44:49;102425.53;;;-0.54;100.00
69306;BME280;56427;51.580;4.656;2023-01-26T03:47:33;102423.84;;;-0.53;100.00
69306;BME280;56427;51.580;4.656;2023-01-26T03:50:18;102423.78;;;-0.50;100.00
69306;BME280;56427;51.580;4.656;2023-01-26T03:53:02;102415.41;;;-0.62;100.00
69306;BME280;56427;51.580;4.656;2023-01-26T03:55:46;102422.19;;;-0.58;100.00
69306;BME280;56427;51.580;4.656;2023-01-26T03:58:30;102420.47;;;-0.57;100.00
69306;BME280;56427;51.580;4.656;2023-01-26T04:00:56;102419.63;;;-0.58;100.00
69306;BME280;56427;51.580;4.656;2023-01-26T04:03:21;102420.47;;;-0.56;100.00
69306;BME280;56427;51.580;4.656;2023-01-26T04:06:05;102412.00;;;-0.58;100.00
69306;BME280;56427;51.580;4.656;2023-01-26T04:08:49;102417.00;;;-0.53;100.00
69306;BME280;56427;51.580;4.656;2023-01-26T04:11:15;102413.56;;;-0.47;100.00
69306;BME280;56427;51.580;4.656;2023-01-26T04:13:40;102413.56;;;-0.46;100.00
69306;BME280;56427;51.580;4.656;2023-01-26T04:16:24;102405.13;;;-0.51;100.00
69306;BME280;56427;51.580;4.656;2023-01-26T04:19:08;102414.34;;;-0.42;100.00
69306;BME280;56427;51.580;4.656;2023-01-26T04:21:52;102409.25;;;-0.42;100.00
69306;BME280;56427;51.580;4.656;2023-01-26T04:24:18;102419.47;;;-0.42;100.00
69306;BME280;56427;51.580;4.656;2023-01-26T04:26:46;102418.56;;;-0.40;100.00
69306;BME280;56427;51.580;4.656;2023-01-26T04:29:13;102421.00;;;-0.29;100.00
69306;BME280;56427;51.580;4.656;2023-01-26T04:31:39;102420.22;;;-0.35;100.00
69306;BME280;56427;51.580;4.656;2023-01-26T04:34:06;102415.94;;;-0.33;100.00
69306;BME280;56427;51.580;4.656;2023-01-26T04:36:32;102428.63;;;-0.27;100.00
69306;BME280;56427;51.580;4.656;2023-01-26T04:38:58;102418.22;;;-0.12;100.00
69306;BME280;56427;51.580;4.656;2023-01-26T04:41:24;102418.53;;;-0.37;100.00
69306;BME280;56427;51.580;4.656;2023-01-26T04:43:49;102416.56;;;-0.13;100.00
69306;BME280;56427;51.580;4.656;2023-01-26T04:46:15;102417.56;;;-0.25;100.00
69306;BME280;56427;51.580;4.656;2023-01-26T04:48:40;102416.69;;;-0.24;100.00
69306;BME280;56427;51.580;4.656;2023-01-26T04:51:10;102416.81;;;-0.34;100.00
69306;BME280;56427;51.580;4.656;2023-01-26T04:53:36;102410.06;;;-0.39;100.00
69306;BME280;56427;51.580;4.656;2023-01-26T04:56:01;102417.69;;;-0.37;100.00
69306;BME280;56427;51.580;4.656;2023-01-26T04:58:26;102410.84;;;-0.33;100.00
69306;BME280;56427;51.580;4.656;2023-01-26T05:00:56;102408.25;;;-0.30;100.00
69306;BME280;56427;51.580;4.656;2023-01-26T05:03:22;102404.91;;;-0.35;100.00
69306;BME280;56427;51.580;4.656;2023-01-26T05:05:50;102408.13;;;-0.20;100.00
69306;BME280;56427;51.580;4.656;2023-01-26T05:08:16;102404.66;;;-0.15;100.00
69306;BME280;56427;51.580;4.656;2023-01-26T05:10:41;102399.63;;;-0.20;100.00
69306;BME280;56427;51.580;4.656;2023-01-26T05:13:07;102407.38;;;-0.28;100.00
69306;BME280;56427;51.580;4.656;2023-01-26T05:15:33;102414.81;;;-0.11;100.00
69306;BME280;56427;51.580;4.656;2023-01-26T05:17:58;102407.88;;;-0.01;100.00
69306;BME280;56427;51.580;4.656;2023-01-26T05:20:26;102407.13;;;-0.08;100.00
69306;BME280;56427;51.580;4.656;2023-01-26T05:22:52;102418.06;;;0.02;100.00
69306;BME280;56427;51.580;4.656;2023-01-26T05:25:18;102409.63;;;-0.03;100.00
69306;BME280;56427;51.580;4.656;2023-01-26T05:27:43;102409.66;;;-0.06;100.00
69306;BME280;56427;51.580;4.656;2023-01-26T05:30:09;102415.09;;;0.31;100.00
69306;BME280;56427;51.580;4.656;2023-01-26T05:32:35;102408.69;;;0.03;100.00
69306;BME280;56427;51.580;4.656;2023-01-26T05:35:02;102416.34;;;0.03;100.00
69306;BME280;56427;51.580;4.656;2023-01-26T05:37:28;102414.59;;;0.05;100.00
69306;BME280;56427;51.580;4.656;2023-01-26T05:39:53;102412.91;;;0.07;100.00
69306;BME280;56427;51.580;4.656;2023-01-26T05:42:20;102413.81;;;0.01;100.00
69306;BME280;56427;51.580;4.656;2023-01-26T05:44:46;102414.72;;;-0.03;100.00
69306;BME280;56427;51.580;4.656;2023-01-26T05:47:12;102414.72;;;-0.02;100.00
69306;BME280;56427;51.580;4.656;2023-01-26T05:49:37;102418.84;;;0.06;100.00
69306;BME280;56427;51.580;4.656;2023-01-26T05:52:15;102421.41;;;0.04;100.00
69306;BME280;56427;51.580;4.656;2023-01-26T05:54:41;102421.41;;;0.06;100.00
69306;BME280;56427;51.580;4.656;2023-01-26T05:57:07;102418.22;;;-0.12;100.00
69306;BME280;56427;51.580;4.656;2023-01-26T05:59:33;102424.00;;;0.01;100.00
69306;BME280;56427;51.580;4.656;2023-01-26T06:01:59;102429.03;;;0.09;100.00
69306;BME280;56427;51.580;4.656;2023-01-26T06:04:24;102430.03;;;-0.02;100.00
69306;BME280;56427;51.580;4.656;2023-01-26T06:06:54;102436.03;;;-0.07;100.00
69306;BME280;56427;51.580;4.656;2023-01-26T06:09:20;102434.44;;;-0.16;100.00
69306;BME280;56427;51.580;4.656;2023-01-26T06:11:45;102433.50;;;-0.10;100.00
69306;BME280;56427;51.580;4.656;2023-01-26T06:14:11;102436.84;;;-0.05;100.00
69306;BME280;56427;51.580;4.656;2023-01-26T06:16:36;102438.56;;;-0.06;100.00
69306;BME280;56427;51.580;4.656;2023-01-26T06:19:03;102439.25;;;0.07;100.00
69306;BME280;56427;51.580;4.656;2023-01-26T06:21:29;102442.66;;;0.08;100.00
69306;BME280;56427;51.580;4.656;2023-01-26T06:23:55;102446.13;;;0.04;100.00
69306;BME280;56427;51.580;4.656;2023-01-26T06:26:21;102451.25;;;0.01;100.00
69306;BME280;56427;51.580;4.656;2023-01-26T06:28:48;102441.72;;;0.15;100.00
69306;BME280;56427;51.580;4.656;2023-01-26T06:31:14;102443.44;;;0.11;100.00
69306;BME280;56427;51.580;4.656;2023-01-26T06:33:39;102446.81;;;0.15;100.00
69306;BME280;56427;51.580;4.656;2023-01-26T06:36:08;102449.31;;;0.18;100.00
69306;BME280;56427;51.580;4.656;2023-01-26T06:38:34;102450.19;;;0.17;100.00
69306;BME280;56427;51.580;4.656;2023-01-26T06:41:05;102456.06;;;0.24;100.00
69306;BME280;56427;51.580;4.656;2023-01-26T06:43:32;102457.81;;;0.20;100.00
69306;BME280;56427;51.580;4.656;2023-01-26T06:45:58;102453.53;;;0.21;100.00
69306;BME280;56427;51.580;4.656;2023-01-26T06:48:24;102457.72;;;0.26;100.00
69306;BME280;56427;51.580;4.656;2023-01-26T06:50:50;102462.75;;;0.31;100.00
69306;BME280;56427;51.580;4.656;2023-01-26T06:53:33;102459.41;;;0.27;100.00
69306;BME280;56427;51.580;4.656;2023-01-26T06:56:00;102457.78;;;0.23;100.00
69306;BME280;56427;51.580;4.656;2023-01-26T06:58:26;102460.94;;;0.39;100.00
69306;BME280;56427;51.580;4.656;2023-01-26T07:00:51;102455.19;;;0.25;100.00
69306;BME280;56427;51.580;4.656;2023-01-26T07:03:16;102457.59;;;0.35;100.00
69306;BME280;56427;51.580;4.656;2023-01-26T07:05:42;102457.59;;;0.35;100.00
69306;BME280;56427;51.580;4.656;2023-01-26T07:08:07;102457.69;;;0.28;100.00
69306;BME280;56427;51.580;4.656;2023-01-26T07:10:36;102460.09;;;0.39;100.00
69306;BME280;56427;51.580;4.656;2023-01-26T07:13:03;102465.25;;;0.35;100.00
69306;BME280;56427;51.580;4.656;2023-01-26T07:15:28;102473.91;;;0.27;100.00
69306;BME280;56427;51.580;4.656;2023-01-26T07:17:55;102472.03;;;0.38;100.00
69306;BME280;56427;51.580;4.656;2023-01-26T07:20:21;102479.56;;;0.47;100.00
69306;BME280;56427;51.580;4.656;2023-01-26T07:22:46;102479.50;;;0.50;100.00
69306;BME280;56427;51.580;4.656;2023-01-26T07:25:12;102480.41;;;0.49;100.00
69306;BME280;56427;51.580;4.656;2023-01-26T07:27:38;102475.19;;;0.54;100.00
69306;BME280;56427;51.580;4.656;2023-01-26T07:30:04;102472.56;;;0.59;100.00
69306;BME280;56427;51.580;4.656;2023-01-26T07:32:30;102486.13;;;0.64;100.00
69306;BME280;56427;51.580;4.656;2023-01-26T07:34:55;102482.06;;;0.50;100.00
69306;BME280;56427;51.580;4.656;2023-01-26T07:37:20;102486.19;;;0.59;100.00
69306;BME280;56427;51.580;4.656;2023-01-26T07:39:46;102493.06;;;0.55;100.00
69306;BME280;56427;51.580;4.656;2023-01-26T07:42:13;102487.84;;;0.63;100.00
69306;BME280;56427;51.580;4.656;2023-01-26T07:44:38;102497.22;;;0.64;100.00
69306;BME280;56427;51.580;4.656;2023-01-26T07:47:04;102492.97;;;0.63;100.00
69306;BME280;56427;51.580;4.656;2023-01-26T07:49:30;102502.38;;;0.61;100.00
69306;BME280;56427;51.580;4.656;2023-01-26T07:51:56;102495.44;;;0.68;100.00
69306;BME280;56427;51.580;4.656;2023-01-26T07:54:21;102501.28;;;0.76;100.00
69306;BME280;56427;51.580;4.656;2023-01-26T07:56:50;102501.34;;;0.73;100.00
69306;BME280;56427;51.580;4.656;2023-01-26T07:59:17;102497.72;;;0.86;100.00
69306;BME280;56427;51.580;4.656;2023-01-26T08:01:42;102507.97;;;0.83;100.00
69306;BME280;56427;51.580;4.656;2023-01-26T08:04:07;102505.28;;;0.93;100.00
69306;BME280;56427;51.580;4.656;2023-01-26T08:06:33;102502.78;;;0.89;100.00
69306;BME280;56427;51.580;4.656;2023-01-26T08:08:58;102508.69;;;0.93;100.00
69306;BME280;56427;51.580;4.656;2023-01-26T08:11:23;102507.53;;;1.11;100.00
69306;BME280;56427;51.580;4.656;2023-01-26T08:13:50;102512.63;;;1.13;100.00
69306;BME280;56427;51.580;4.656;2023-01-26T08:16:15;102506.06;;;0.98;100.00
69306;BME280;56427;51.580;4.656;2023-01-26T08:18:42;102510.97;;;1.10;100.00
69306;BME280;56427;51.580;4.656;2023-01-26T08:21:09;102513.38;;;1.19;100.00
69306;BME280;56427;51.580;4.656;2023-01-26T08:23:35;102514.13;;;1.26;100.00
69306;BME280;56427;51.580;4.656;2023-01-26T08:26:01;102523.34;;;1.33;100.00
69306;BME280;56427;51.580;4.656;2023-01-26T08:28:27;102515.47;;;1.47;100.00
69306;BME280;56427;51.580;4.656;2023-01-26T08:30:52;102522.34;;;1.43;100.00
69306;BME280;56427;51.580;4.656;2023-01-26T08:33:18;102523.22;;;1.42;100.00
69306;BME280;56427;51.580;4.656;2023-01-26T08:35:43;102519.06;;;1.37;100.00
69306;BME280;56427;51.580;4.656;2023-01-26T08:38:09;102526.34;;;1.58;100.00
69306;BME280;56427;51.580;4.656;2023-01-26T08:40:34;102523.00;;;1.55;100.00
69306;BME280;56427;51.580;4.656;2023-01-26T08:43:00;102531.94;;;1.77;100.00
69306;BME280;56427;51.580;4.656;2023-01-26T08:45:27;102532.13;;;1.70;100.00
69306;BME280;56427;51.580;4.656;2023-01-26T08:47:53;102529.94;;;1.93;100.00
69306;BME280;56427;51.580;4.656;2023-01-26T08:50:18;102541.13;;;1.89;100.00
69306;BME280;56427;51.580;4.656;2023-01-26T08:52:43;102536.91;;;1.87;100.00
69306;BME280;56427;51.580;4.656;2023-01-26T08:55:09;102545.25;;;1.96;100.00
69306;BME280;56427;51.580;4.656;2023-01-26T08:57:34;102544.50;;;1.91;100.00
69306;BME280;56427;51.580;4.656;2023-01-26T09:00:00;102539.59;;;2.24;100.00
69306;BME280;56427;51.580;4.656;2023-01-26T09:02:25;102539.00;;;2.10;100.00
69306;BME280;56427;51.580;4.656;2023-01-26T09:04:51;102545.72;;;2.15;100.00
69306;BME280;56427;51.580;4.656;2023-01-26T09:07:16;102540.69;;;2.12;100.00
69306;BME280;56427;51.580;4.656;2023-01-26T09:09:42;102540.28;;;2.31;100.00
69306;BME280;56427;51.580;4.656;2023-01-26T09:12:07;102546.13;;;2.37;100.00
69306;BME280;56427;51.580;4.656;2023-01-26T09:14:32;102537.53;;;2.40;100.00
69306;BME280;56427;51.580;4.656;2023-01-26T09:16:57;102536.25;;;2.60;100.00
69306;BME280;56427;51.580;4.656;2023-01-26T09:19:23;102538.75;;;2.63;100.00
69306;BME280;56427;51.580;4.656;2023-01-26T09:21:52;102542.09;;;2.65;100.00
69306;BME280;56427;51.580;4.656;2023-01-26T09:24:19;102540.16;;;2.76;100.00
69306;BME280;56427;51.580;4.656;2023-01-26T09:26:44;102552.00;;;2.82;100.00
69306;BME280;56427;51.580;4.656;2023-01-26T09:29:09;102540.50;;;2.98;100.00
69306;BME280;56427;51.580;4.656;2023-01-26T09:31:34;102536.91;;;3.40;100.00
69306;BME280;56427;51.580;4.656;2023-01-26T09:34:00;102533.84;;;3.58;100.00
69306;BME280;56427;51.580;4.656;2023-01-26T09:36:25;102532.44;;;3.79;100.00
69306;BME280;56427;51.580;4.656;2023-01-26T09:38:50;102537.66;;;3.76;100.00
69306;BME280;56427;51.580;4.656;2023-01-26T09:43:56;102537.22;;;3.93;100.00
69306;BME280;56427;51.580;4.656;2023-01-26T09:46:30;102535.22;;;4.03;100.00
69306;BME280;56427;51.580;4.656;2023-01-26T09:49:23;102539.13;;;4.16;100.00
69306;BME280;56427;51.580;4.656;2023-01-26T09:52:09;102542.97;;;4.31;100.00
69306;BME280;56427;51.580;4.656;2023-01-26T09:54:41;102547.00;;;4.40;100.00
69306;BME280;56427;51.580;4.656;2023-01-26T09:57:14;102551.84;;;4.51;100.00
69306;BME280;56427;51.580;4.656;2023-01-26T09:59:47;102557.72;;;4.54;100.00
69306;BME280;56427;51.580;4.656;2023-01-26T10:02:34;102556.59;;;4.63;100.00
69306;BME280;56427;51.580;4.656;2023-01-26T10:05:10;102552.09;;;4.70;100.00
69306;BME280;56427;51.580;4.656;2023-01-26T10:07:42;102546.03;;;4.72;100.00
69306;BME280;56427;51.580;4.656;2023-01-26T10:10:15;102547.97;;;4.92;100.00
69306;BME280;56427;51.580;4.656;2023-01-26T10:12:43;102556.53;;;4.93;100.00
69306;BME280;56427;51.580;4.656;2023-01-26T10:15:16;102551.25;;;4.97;100.00
69306;BME280;56427;51.580;4.656;2023-01-26T10:17:44;102552.63;;;5.08;100.00
69306;BME280;56427;51.580;4.656;2023-01-26T10:22:43;102547.69;;;5.02;100.00
69306;BME280;56427;51.580;4.656;2023-01-26T10:27:39;102551.59;;;5.13;100.00
69306;BME280;56427;51.580;4.656;2023-01-26T10:30:04;102554.13;;;5.15;100.00
69306;BME280;56427;51.580;4.656;2023-01-26T10:32:30;102547.41;;;5.09;100.00
69306;BME280;56427;51.580;4.656;2023-01-26T10:34:55;102549.66;;;5.20;100.00
69306;BME280;56427;51.580;4.656;2023-01-26T10:37:25;102569.25;;;5.24;100.00
69306;BME280;56427;51.580;4.656;2023-01-26T10:39:57;102564.19;;;5.21;100.00
69306;BME280;56427;51.580;4.656;2023-01-26T10:42:26;102557.69;;;5.36;100.00
69306;BME280;56427;51.580;4.656;2023-01-26T10:44:52;102567.13;;;5.37;100.00
69306;BME280;56427;51.580;4.656;2023-01-26T10:47:18;102564.59;;;5.35;100.00
69306;BME280;56427;51.580;4.656;2023-01-26T10:49:45;102561.19;;;5.35;100.00
69306;BME280;56427;51.580;4.656;2023-01-26T10:52:22;102562.66;;;5.42;100.00
69306;BME280;56427;51.580;4.656;2023-01-26T10:55:08;102567.91;;;5.39;100.00
69306;BME280;56427;51.580;4.656;2023-01-26T10:57:36;102570.53;;;5.63;100.00
69306;BME280;56427;51.580;4.656;2023-01-26T11:00:06;102574.75;;;5.65;100.00
69306;BME280;56427;51.580;4.656;2023-01-26T11:02:34;102571.22;;;5.68;100.00
69306;BME280;56427;51.580;4.656;2023-01-26T11:07:35;102577.38;;;5.89;100.00
69306;BME280;56427;51.580;4.656;2023-01-26T11:12:48;102582.53;;;5.89;100.00
69306;BME280;56427;51.580;4.656;2023-01-26T11:15:24;102579.47;;;5.78;100.00
69306;BME280;56427;51.580;4.656;2023-01-26T11:17:59;102576.28;;;5.96;100.00
69306;BME280;56427;51.580;4.656;2023-01-26T11:20:54;102579.94;;;5.89;100.00
69306;BME280;56427;51.580;4.656;2023-01-26T11:43:46;102563.72;;;6.34;100.00
69306;BME280;56427;51.580;4.656;2023-01-26T11:46:34;102561.81;;;6.16;100.00
69306;BME280;56427;51.580;4.656;2023-01-26T11:51:45;102554.19;;;6.36;100.00
69306;BME280;56427;51.580;4.656;2023-01-26T11:59:59;102552.63;;;6.54;100.00
69306;BME280;56427;51.580;4.656;2023-01-26T12:02:32;102549.84;;;6.82;100.00
69306;BME280;56427;51.580;4.656;2023-01-26T12:05:16;102543.59;;;6.66;100.00
69306;BME280;56427;51.580;4.656;2023-01-26T12:07:54;102541.69;;;6.71;100.00
69306;BME280;56427;51.580;4.656;2023-01-26T12:10:31;102545.56;;;6.59;100.00
69306;BME280;56427;51.580;4.656;2023-01-26T12:13:09;102548.88;;;6.63;100.00
69306;BME280;56427;51.580;4.656;2023-01-26T12:15:42;102535.44;;;6.55;100.00
69306;BME280;56427;51.580;4.656;2023-01-26T12:18:28;102533.75;;;6.54;100.00
69306;BME280;56427;51.580;4.656;2023-01-26T12:21:09;102525.13;;;6.55;100.00
69306;BME280;56427;51.580;4.656;2023-01-26T12:23:49;102524.31;;;6.75;100.00
69306;BME280;56427;51.580;4.656;2023-01-26T12:26:21;102517.94;;;6.84;100.00
69306;BME280;56427;51.580;4.656;2023-01-26T12:29:12;102512.97;;;6.79;100.00
69306;BME280;56427;51.580;4.656;2023-01-26T12:31:47;102511.31;;;6.78;100.00
69306;BME280;56427;51.580;4.656;2023-01-26T12:34:13;102509.91;;;7.12;100.00
69306;BME280;56427;51.580;4.656;2023-01-26T12:39:52;102499.50;;;7.13;100.00
69306;BME280;56427;51.580;4.656;2023-01-26T12:45:00;102494.44;;;7.32;100.00
69306;BME280;56427;51.580;4.656;2023-01-26T12:47:42;102504.09;;;7.48;100.00
69306;BME280;56427;51.580;4.656;2023-01-26T12:55:29;102492.63;;;7.14;100.00
69306;BME280;56427;51.580;4.656;2023-01-26T12:58:01;102492.94;;;7.06;100.00
69306;BME280;56427;51.580;4.656;2023-01-26T13:00:30;102493.34;;;7.17;100.00
69306;BME280;56427;51.580;4.656;2023-01-26T13:03:00;102484.56;;;7.01;100.00
69306;BME280;56427;51.580;4.656;2023-01-26T13:05:34;102493.72;;;7.08;100.00
69306;BME280;56427;51.580;4.656;2023-01-26T13:13:30;102480.69;;;7.32;100.00
69306;BME280;56427;51.580;4.656;2023-01-26T13:18:53;102470.03;;;7.19;100.00
69306;BME280;56427;51.580;4.656;2023-01-26T13:23:56;102474.50;;;7.15;100.00
69306;BME280;56427;51.580;4.656;2023-01-26T13:31:54;102464.91;;;7.38;100.00
69306;BME280;56427;51.580;4.656;2023-01-26T13:34:35;102461.59;;;7.74;100.00
69306;BME280;56427;51.580;4.656;2023-01-26T13:37:15;102459.84;;;7.74;100.00
69306;BME280;56427;51.580;4.656;2023-01-26T13:39:46;102463.75;;;7.45;100.00
69306;BME280;56427;51.580;4.656;2023-01-26T13:42:28;102468.91;;;7.45;100.00
69306;BME280;56427;51.580;4.656;2023-01-26T13:45:00;102469.84;;;7.24;100.00
69306;BME280;56427;51.580;4.656;2023-01-26T13:47:35;102469.81;;;7.44;100.00
69306;BME280;56427;51.580;4.656;2023-01-26T13:50:30;102476.53;;;7.48;100.00
69306;BME280;56427;51.580;4.656;2023-01-26T13:52:56;102466.19;;;7.48;100.00
69306;BME280;56427;51.580;4.656;2023-01-26T13:55:24;102467.50;;;7.17;100.00
69306;BME280;56427;51.580;4.656;2023-01-26T13:58:10;102467.16;;;7.25;100.00
69306;BME280;56427;51.580;4.656;2023-01-26T14:00:37;102478.22;;;7.08;100.00
69306;BME280;56427;51.580;4.656;2023-01-26T14:03:03;102481.84;;;7.04;100.00
69306;BME280;56427;51.580;4.656;2023-01-26T14:05:28;102486.38;;;6.99;100.00
69306;BME280;56427;51.580;4.656;2023-01-26T14:07:56;102486.59;;;7.13;100.00
69306;BME280;56427;51.580;4.656;2023-01-26T14:10:21;102489.53;;;7.06;100.00
69306;BME280;56427;51.580;4.656;2023-01-26T14:12:53;102480.75;;;7.10;100.00
69306;BME280;56427;51.580;4.656;2023-01-26T14:15:26;102480.22;;;7.22;100.00